createdAt,value
2023-04-29T00:00:28.900Z,4.04
2023-04-29T00:05:33.047Z,4.25
2023-04-29T00:10:37.186Z,4.20
2023-04-29T00:15:42.537Z,4.39
2023-04-29T00:20:46.484Z,4.51
2023-04-29T00:25:51.321Z,4.56
2023-04-29T00:30:56.473Z,4.69
2023-04-29T00:36:00.909Z,4.88
2023-04-29T00:41:05.451Z,4.93
2023-04-29T00:46:11.241Z,4.89
2023-04-29T00:51:15.520Z,5.05
2023-04-29T00:56:21.798Z,5.28
2023-04-29T01:01:25.980Z,5.16
2023-04-29T01:06:59.280Z,5.20
2023-04-29T01:12:23.379Z,5.22
2023-04-29T01:17:32.312Z,5.56
2023-04-29T01:22:36.432Z,5.74
2023-04-29T01:27:48.957Z,5.80
2023-04-29T01:33:23.120Z,5.92
2023-04-29T01:38:40.708Z,6.10
2023-04-29T01:43:49.281Z,6.07
2023-04-29T01:48:58.207Z,6.23
2023-04-29T01:54:02.798Z,6.28
2023-04-29T01:59:06.819Z,6.48
2023-04-29T02:04:20.126Z,6.66
2023-04-29T02:09:24.340Z,6.64
2023-04-29T02:15:11.343Z,6.84
2023-04-29T02:20:15.398Z,7.05
2023-04-29T02:25:19.770Z,7.04
2023-04-29T02:30:24.795Z,7.16
2023-04-29T02:35:28.907Z,7.39
2023-04-29T02:40:33.622Z,7.74
2023-04-29T02:45:38.475Z,7.64
2023-04-29T02:50:42.772Z,7.52
2023-04-29T02:55:46.651Z,7.83
2023-04-29T03:00:51.638Z,8.11
2023-04-29T03:05:55.503Z,8.29
2023-04-29T03:10:59.818Z,8.27
2023-04-29T03:16:07.579Z,8.34
2023-04-29T03:21:12.277Z,8.69
2023-04-29T03:26:16.311Z,8.93
2023-04-29T03:31:22.034Z,8.91
2023-04-29T03:36:26.369Z,8.83
2023-04-29T03:41:40.400Z,8.96
2023-04-29T03:46:46.543Z,9.09
2023-04-29T03:51:50.772Z,9.18
2023-04-29T03:56:56.432Z,9.21
2023-04-29T04:02:01.257Z,9.44
2023-04-29T04:07:06.827Z,9.22
2023-04-29T04:12:28.909Z,9.51
2023-04-29T04:17:33.448Z,9.30
2023-04-29T04:22:38.822Z,9.47
2023-04-29T04:27:52.439Z,9.71
2023-04-29T04:33:08.372Z,9.89
2023-04-29T04:38:14.000Z,9.75
2023-04-29T04:43:18.620Z,9.70
2023-04-29T04:48:23.102Z,9.75
2023-04-29T04:53:28.222Z,9.85
2023-04-29T04:58:36.871Z,9.75
2023-04-29T05:03:41.914Z,9.94
2023-04-29T05:08:46.526Z,9.92
2023-04-29T05:13:51.849Z,9.72
2023-04-29T05:18:56.681Z,9.60
2023-04-29T05:24:09.420Z,9.74
2023-04-29T05:29:14.296Z,9.76
2023-04-29T05:34:26.266Z,9.71
2023-04-29T05:39:30.308Z,9.65
2023-04-29T05:44:44.720Z,9.30
2023-04-29T05:49:50.047Z,9.27
2023-04-29T05:54:54.099Z,9.27
2023-04-29T06:00:00.304Z,8.98
2023-04-29T06:05:09.701Z,8.81
2023-04-29T06:10:20.201Z,8.75
2023-04-29T06:15:24.471Z,8.69
2023-04-29T06:20:29.121Z,8.58
2023-04-29T06:25:33.334Z,9.00
2023-04-29T06:30:41.018Z,9.06
2023-04-29T06:35:45.585Z,8.81
2023-04-29T06:41:07.857Z,8.72
2023-04-29T06:46:31.105Z,8.98
2023-04-29T06:51:46.201Z,9.71
2023-04-29T06:56:50.049Z,9.99
2023-04-29T07:01:54.942Z,11.00
2023-04-29T07:07:00.365Z,10.42
2023-04-29T07:12:05.920Z,9.87
2023-04-29T07:17:10.930Z,9.68
2023-04-29T07:22:16.911Z,9.99
2023-04-29T07:27:21.006Z,10.89
2023-04-29T07:32:25.190Z,10.49
2023-04-29T07:37:29.262Z,10.33
2023-04-29T07:42:33.448Z,10.34
2023-04-29T07:47:38.492Z,10.30
2023-04-29T07:52:42.723Z,10.38
2023-04-29T07:57:46.802Z,10.49
2023-04-29T08:02:57.686Z,10.63
2023-04-29T08:08:03.173Z,11.03
2023-04-29T08:13:07.082Z,11.48
2023-04-29T08:18:11.225Z,11.77
2023-04-29T08:23:15.267Z,13.27
2023-04-29T08:28:19.837Z,12.35
2023-04-29T08:33:23.965Z,10.92
2023-04-29T08:38:28.652Z,9.98
2023-04-29T08:43:36.193Z,9.46
2023-04-29T08:48:44.773Z,9.34
2023-04-29T08:53:49.226Z,9.31
2023-04-29T08:58:59.628Z,9.33
2023-04-29T09:04:14.119Z,9.02
2023-04-29T09:09:20.836Z,8.91
2023-04-29T09:14:26.411Z,8.85
2023-04-29T09:19:35.772Z,9.01
2023-04-29T09:24:40.581Z,9.65
2023-04-29T09:30:01.649Z,9.69
2023-04-29T09:35:24.558Z,9.54
2023-04-29T09:40:46.623Z,9.47
2023-04-29T09:45:54.876Z,9.65
2023-04-29T09:51:06.827Z,9.29
2023-04-29T09:56:10.756Z,8.79
2023-04-29T10:01:18.839Z,8.61
2023-04-29T10:06:24.996Z,8.48
2023-04-29T10:11:29.453Z,8.56
2023-04-29T10:16:42.870Z,8.49
2023-04-29T10:21:50.642Z,8.38
2023-04-29T10:26:57.579Z,8.31
2023-04-29T10:32:02.897Z,8.21
2023-04-29T10:37:12.146Z,8.14
2023-04-29T10:42:47.141Z,8.08
2023-04-29T10:48:13.311Z,8.06
2023-04-29T10:53:23.216Z,8.00
2023-04-29T10:58:37.192Z,7.82
2023-04-29T11:03:59.635Z,7.71
2023-04-29T11:09:08.488Z,7.70
2023-04-29T11:14:14.822Z,7.66
2023-04-29T11:19:19.225Z,7.73
2023-04-29T11:24:23.421Z,8.17
2023-04-29T11:29:28.802Z,7.96
2023-04-29T11:34:34.195Z,7.80
2023-04-29T11:39:38.214Z,7.65
2023-04-29T11:44:42.309Z,8.02
2023-04-29T11:49:46.302Z,8.39
2023-04-29T11:54:50.552Z,8.47
2023-04-29T11:59:54.820Z,8.27
2023-04-29T12:05:02.309Z,8.00
2023-04-29T12:10:12.004Z,7.80
2023-04-29T12:15:16.886Z,7.80
2023-04-29T12:20:21.282Z,7.56
2023-04-29T12:25:29.063Z,7.41
2023-04-29T12:30:36.713Z,7.35
2023-04-29T12:35:40.851Z,7.10
2023-04-29T12:40:46.460Z,7.06
2023-04-29T12:45:50.469Z,6.96
2023-04-29T12:50:54.693Z,6.96
2023-04-29T12:55:59.697Z,7.18
2023-04-29T13:01:04.366Z,7.01
2023-04-29T13:06:09.528Z,7.11
2023-04-29T13:11:14.190Z,6.89
2023-04-29T13:16:18.792Z,6.72
2023-04-29T13:21:23.023Z,6.51
2023-04-29T13:26:28.075Z,6.35
2023-04-29T13:31:32.284Z,6.15
2023-04-29T13:36:36.882Z,6.05
2023-04-29T13:41:42.242Z,5.98
2023-04-29T13:46:50.522Z,5.93
2023-04-29T13:52:45.800Z,5.88
2023-04-29T13:57:50.053Z,5.68
2023-04-29T14:02:45.325Z,5.50
2023-04-29T14:07:49.750Z,5.28
2023-04-29T14:12:53.695Z,5.06
2023-04-29T14:17:57.676Z,4.80
2023-04-29T14:23:01.754Z,4.29
2023-04-29T14:28:06.137Z,4.12
2023-04-29T14:33:10.685Z,4.37
2023-04-29T14:38:15.137Z,4.21
2023-04-29T14:43:19.549Z,4.15
2023-04-29T14:48:23.631Z,3.96
2023-04-29T14:53:27.540Z,3.93
2023-04-29T14:58:31.806Z,3.95
2023-04-29T15:08:57.694Z,3.55
2023-04-29T15:14:01.692Z,3.25
2023-04-29T15:19:05.719Z,3.13
2023-04-29T15:24:10.084Z,2.89
2023-04-29T15:29:14.042Z,2.27
2023-04-29T15:34:17.998Z,2.50
2023-04-29T15:39:22.044Z,2.34
2023-04-29T15:44:26.157Z,2.20
2023-04-29T15:49:31.425Z,1.99
2023-04-29T15:54:35.515Z,1.87
2023-04-29T15:59:39.439Z,1.66
2023-04-29T16:04:43.535Z,1.45
2023-04-29T16:09:47.761Z,1.30
2023-04-29T16:14:52.306Z,1.06
2023-04-29T16:19:56.618Z,0.83
2023-04-29T16:25:00.706Z,0.86
2023-04-29T16:30:06.728Z,0.81
2023-04-29T16:35:11.870Z,0.74
2023-04-29T16:40:15.909Z,0.53
2023-04-29T16:45:21.624Z,0.43
2023-04-29T16:50:27.898Z,0.35
2023-04-29T16:55:32.290Z,0.25
2023-04-29T17:00:36.684Z,0.32
2023-04-29T17:05:41.270Z,0.34
2023-04-29T17:10:45.813Z,0.32
2023-04-29T17:15:49.820Z,-0.30
2023-04-29T17:20:54.079Z,-0.03
2023-04-29T17:25:58.279Z,-0.14
2023-04-29T17:31:03.498Z,0.05
2023-04-29T17:36:07.861Z,0.05
2023-04-29T17:41:12.032Z,-0.02
2023-04-29T17:46:16.081Z,-0.07
2023-04-29T17:51:19.951Z,-0.18
2023-04-29T17:56:24.054Z,-0.25
2023-04-29T18:01:28.217Z,-0.31
2023-04-29T18:06:32.530Z,-0.26
2023-04-29T18:11:36.642Z,-0.30
2023-04-29T18:16:41.320Z,-0.81
2023-04-29T18:21:45.462Z,-0.59
2023-04-29T18:26:49.557Z,-0.98
2023-04-29T18:31:55.684Z,-0.71
2023-04-29T18:36:59.737Z,-0.72
2023-04-29T18:42:05.265Z,-0.78
2023-04-29T18:47:09.133Z,-0.92
2023-04-29T18:52:13.429Z,-0.93
2023-04-29T18:57:17.568Z,-1.09
2023-04-29T19:02:21.642Z,-1.01
2023-04-29T19:07:25.676Z,-1.02
2023-04-29T19:12:29.555Z,-0.97
2023-04-29T19:17:33.651Z,-1.01
2023-04-29T19:22:38.212Z,-1.10
2023-04-29T19:27:45.921Z,-1.27
2023-04-29T19:32:49.815Z,-1.31
2023-04-29T19:37:55.497Z,-1.38
2023-04-29T19:42:59.450Z,-1.81
2023-04-29T19:48:04.764Z,-1.67
2023-04-29T19:53:08.695Z,-1.70
2023-04-29T19:58:12.937Z,-1.84
2023-04-29T20:03:17.206Z,-1.75
2023-04-29T20:08:21.308Z,-1.76
2023-04-29T20:13:25.378Z,-1.83
2023-04-29T20:18:29.379Z,-2.20
2023-04-29T20:23:33.418Z,-1.99
2023-04-29T20:28:39.631Z,-2.12
2023-04-29T20:34:44.106Z,-2.18
2023-04-29T20:39:48.665Z,-2.24
2023-04-29T20:44:52.713Z,-2.46
2023-04-29T20:49:56.810Z,-2.57
2023-04-29T20:55:02.003Z,-2.17
2023-04-29T21:00:09.562Z,-2.16
2023-04-29T21:05:15.235Z,-2.16
2023-04-29T21:10:19.382Z,-2.33
2023-04-29T21:15:25.197Z,-2.33
2023-04-29T21:20:29.191Z,-2.78
2023-04-29T21:25:33.431Z,-2.47
2023-04-29T21:30:37.622Z,-2.62
2023-04-29T21:35:44.023Z,-2.66
2023-04-29T21:40:49.159Z,-2.70
2023-04-29T21:45:55.609Z,-2.67
2023-04-29T21:51:00.555Z,-2.65
2023-04-29T21:56:06.296Z,-2.65
2023-04-29T22:01:36.862Z,-2.78
2023-04-29T22:06:40.951Z,-2.86
2023-04-29T22:11:44.998Z,-3.08
2023-04-29T22:16:49.072Z,-3.00
2023-04-29T22:21:53.145Z,-2.94
2023-04-29T22:26:57.377Z,-2.88
2023-04-29T22:32:01.592Z,-2.78
2023-04-29T22:37:05.854Z,-2.78
2023-04-29T22:42:09.742Z,-2.96
2023-04-29T22:47:13.873Z,-3.13
2023-04-29T22:52:17.796Z,-3.18
2023-04-29T22:57:21.919Z,-3.03
2023-04-29T23:02:30.255Z,-2.92
2023-04-29T23:07:34.667Z,-2.93
2023-04-29T23:12:38.613Z,-2.81
2023-04-29T23:17:42.625Z,-2.96
2023-04-29T23:22:46.710Z,-2.15
2023-04-29T23:27:50.640Z,-1.88
2023-04-29T23:32:54.936Z,-1.72
2023-04-29T23:37:58.977Z,-1.46
2023-04-29T23:43:03.052Z,-1.16
2023-04-29T23:48:07.296Z,-1.04
2023-04-29T23:53:11.252Z,-0.81
2023-04-29T23:58:15.297Z,-0.47
